San Diego, California
Current Conditions -  °F | °C
As of 2:51 PM on Saturday 25 Oct 2014 (Local Time) from KSAN Reporting Station
Broken Clouds Broken Clouds  
Wind Chill: 74°   Ceiling: 1500
Heat Index: 74°   Visibility: 9mi
Dew Point: 62°   Wind: 10mph
Humidity: 66%   Direction: 300°WNW
Pressure: 30.03"   Gusts: NA
Location:  32.72°N, 117.16°W
Report Text: KSAN 252151Z 30009KT 9SM BKN015 BKN100 23/17 A3003 RMK AO2 SLP170 T02330167 $
Loading
Personal Weather Stations






























Interactive Weather Map
Tropical Storm Tracking
New forecast layout! Learn more

10-Day Weather Forecast

Advertisements
Track Severe Weather on mobile